createdAt,value
2018-11-27T00:00:45.684Z,65.98
2018-11-27T00:03:15.462Z,66.69
2018-11-27T00:05:44.738Z,66.38
2018-11-27T00:08:14.415Z,66.02
2018-11-27T00:10:43.674Z,66.65
2018-11-27T00:13:13.225Z,67.39
2018-11-27T00:15:43.452Z,66.92
2018-11-27T00:18:12.638Z,67.17
2018-11-27T00:20:41.862Z,66.94
2018-11-27T00:23:11.066Z,66.59
2018-11-27T00:25:40.512Z,66.69
2018-11-27T00:28:09.759Z,67.20
2018-11-27T00:30:39.022Z,67.32
2018-11-27T00:33:08.368Z,67.30
2018-11-27T00:35:37.628Z,67.55
2018-11-27T00:38:06.966Z,66.90
2018-11-27T00:40:36.193Z,67.38
2018-11-27T00:43:05.767Z,67.35
2018-11-27T00:45:35.034Z,67.32
2018-11-27T00:48:04.275Z,67.33
2018-11-27T00:50:33.534Z,67.38
2018-11-27T00:53:02.785Z,67.37
2018-11-27T00:55:32.042Z,67.02
2018-11-27T00:58:01.234Z,67.02
2018-11-27T01:00:30.653Z,67.36
2018-11-27T01:02:59.886Z,66.74
2018-11-27T01:05:29.107Z,66.95
2018-11-27T01:07:58.369Z,67.25
2018-11-27T01:10:27.642Z,67.24
2018-11-27T01:12:56.837Z,66.80
2018-11-27T01:15:26.079Z,67.33
2018-11-27T01:17:57.453Z,67.00
2018-11-27T01:20:27.615Z,66.68
2018-11-27T01:22:56.817Z,67.26
2018-11-27T01:25:26.065Z,67.32
2018-11-27T01:27:55.281Z,66.85
2018-11-27T01:30:24.718Z,66.64
2018-11-27T01:32:53.933Z,66.35
2018-11-27T01:35:23.952Z,66.10
2018-11-27T01:37:54.104Z,66.72
2018-11-27T01:40:27.209Z,66.73
2018-11-27T01:42:57.248Z,66.72
2018-11-27T01:45:26.740Z,66.37
2018-11-27T01:47:56.008Z,66.27
2018-11-27T01:50:25.244Z,67.09
2018-11-27T01:52:54.564Z,67.71
2018-11-27T01:55:23.915Z,67.23
2018-11-27T01:57:53.165Z,67.65
2018-11-27T02:00:25.531Z,67.43
2018-11-27T02:02:55.362Z,67.73
2018-11-27T02:05:25.105Z,68.04
2018-11-27T02:07:54.588Z,67.77
2018-11-27T02:10:23.930Z,68.17
2018-11-27T02:12:53.969Z,67.02
2018-11-27T02:15:25.112Z,67.06
2018-11-27T02:17:54.409Z,66.28
2018-11-27T02:20:23.613Z,66.29
2018-11-27T02:22:52.953Z,66.70
2018-11-27T02:25:25.104Z,66.96
2018-11-27T02:27:54.387Z,67.27
2018-11-27T02:30:24.411Z,66.65
2018-11-27T02:32:53.641Z,66.44
2018-11-27T02:35:25.371Z,66.86
2018-11-27T02:37:56.458Z,66.99
2018-11-27T02:40:25.796Z,66.66
2018-11-27T02:42:55.036Z,66.99
2018-11-27T02:45:25.152Z,66.58
2018-11-27T02:47:54.794Z,66.58
2018-11-27T02:50:24.935Z,66.19
2018-11-27T02:52:54.211Z,66.62
2018-11-27T02:55:24.528Z,67.11
2018-11-27T02:57:54.026Z,67.87
2018-11-27T03:00:25.374Z,67.56
2018-11-27T03:02:54.880Z,67.72
2018-11-27T03:05:29.432Z,67.07
2018-11-27T03:07:58.749Z,67.48
2018-11-27T03:10:27.980Z,67.35
2018-11-27T03:12:57.227Z,67.78
2018-11-27T03:15:26.458Z,67.60
2018-11-27T03:17:55.695Z,68.14
2018-11-27T03:20:24.959Z,67.22
2018-11-27T03:22:54.199Z,66.94
2018-11-27T03:25:23.844Z,68.29
2018-11-27T03:42:58.149Z,67.76
2018-11-27T03:45:27.353Z,68.02
2018-11-27T03:47:56.609Z,68.26
2018-11-27T03:50:31.651Z,67.34
2018-11-27T03:53:00.869Z,66.98
2018-11-27T03:55:30.241Z,67.52
2018-11-27T03:57:59.482Z,67.22
2018-11-27T04:00:29.749Z,67.88
2018-11-27T04:03:00.975Z,67.94
2018-11-27T04:05:30.285Z,67.97
2018-11-27T04:07:59.550Z,67.50
2018-11-27T04:10:28.838Z,67.73
2018-11-27T04:12:58.130Z,67.26
2018-11-27T04:15:27.373Z,66.77
2018-11-27T04:17:56.615Z,68.04
2018-11-27T04:20:25.907Z,67.56
2018-11-27T04:22:55.171Z,67.40
2018-11-27T04:25:24.432Z,67.63
2018-11-27T04:27:53.908Z,67.64
2018-11-27T04:30:23.448Z,68.20
2018-11-27T04:32:52.641Z,68.59
2018-11-27T04:35:22.501Z,68.03
2018-11-27T04:37:51.749Z,67.61
2018-11-27T04:40:22.471Z,68.41
2018-11-27T04:42:51.758Z,68.64
2018-11-27T04:45:23.491Z,67.71
2018-11-27T04:47:52.738Z,67.72
2018-11-27T04:50:22.183Z,68.14
2018-11-27T04:52:51.501Z,67.61
2018-11-27T04:55:21.482Z,67.72
2018-11-27T04:57:51.621Z,68.31
2018-11-27T05:00:22.786Z,69.13
2018-11-27T05:02:52.928Z,68.19
2018-11-27T05:05:22.289Z,67.83
2018-11-27T05:07:51.673Z,68.35
2018-11-27T05:10:22.091Z,68.30
2018-11-27T05:12:51.397Z,68.44
2018-11-27T05:15:25.025Z,68.30
2018-11-27T05:17:57.092Z,68.93
2018-11-27T05:20:26.450Z,68.23
2018-11-27T05:22:55.711Z,68.11
2018-11-27T05:25:24.994Z,68.01
2018-11-27T05:27:55.401Z,67.69
2018-11-27T05:30:25.695Z,67.76
2018-11-27T05:32:54.967Z,67.95
2018-11-27T05:35:26.384Z,68.27
2018-11-27T05:37:55.710Z,68.69
2018-11-27T05:40:27.928Z,68.82
2018-11-27T05:42:59.401Z,68.96
2018-11-27T05:45:28.724Z,69.11
2018-11-27T05:47:58.005Z,69.03
2018-11-27T05:50:27.216Z,69.13
2018-11-27T05:52:56.484Z,68.79
2018-11-27T05:55:25.722Z,68.14
2018-11-27T05:57:56.497Z,68.84
2018-11-27T06:00:26.828Z,68.87
2018-11-27T06:02:57.565Z,69.36
2018-11-27T06:05:26.664Z,69.00
2018-11-27T06:07:56.007Z,68.80
2018-11-27T06:10:25.427Z,68.87
2018-11-27T06:12:54.704Z,69.49
2018-11-27T06:15:24.657Z,69.67
2018-11-27T06:18:01.700Z,69.05
2018-11-27T06:20:31.041Z,69.24
2018-11-27T06:23:00.628Z,68.28
2018-11-27T06:25:30.825Z,68.70
2018-11-27T06:28:01.333Z,68.28
2018-11-27T06:30:31.311Z,68.14
2018-11-27T06:33:00.561Z,67.88
2018-11-27T06:35:31.828Z,69.03
2018-11-27T06:38:01.123Z,69.45
2018-11-27T06:40:31.052Z,68.41
2018-11-27T06:43:00.317Z,67.89
2018-11-27T06:45:29.629Z,68.47
2018-11-27T06:47:58.971Z,67.80
2018-11-27T06:50:28.230Z,68.16
2018-11-27T06:52:57.478Z,68.27
2018-11-27T06:55:26.745Z,68.72
2018-11-27T06:57:56.231Z,68.24
2018-11-27T07:00:26.493Z,67.95
2018-11-27T07:02:56.345Z,67.09
2018-11-27T07:05:25.644Z,68.06
2018-11-27T07:07:54.830Z,68.14
2018-11-27T07:10:26.094Z,68.59
2018-11-27T07:13:29.202Z,67.45
2018-11-27T07:15:57.890Z,66.85
2018-11-27T07:18:27.164Z,66.81
2018-11-27T07:20:56.440Z,66.07
2018-11-27T07:23:25.680Z,66.71
2018-11-27T07:25:54.915Z,66.44
2018-11-27T07:28:24.145Z,67.03
2018-11-27T07:30:53.432Z,66.41
2018-11-27T07:33:22.779Z,66.25
2018-11-27T07:35:51.986Z,66.71
2018-11-27T07:38:21.186Z,65.33
2018-11-27T07:40:50.430Z,65.56
2018-11-27T07:43:19.636Z,64.49
2018-11-27T07:45:48.941Z,64.54
2018-11-27T07:48:18.131Z,65.75
2018-11-27T07:50:47.350Z,65.07
2018-11-27T07:53:16.553Z,64.67
2018-11-27T07:55:45.827Z,64.85
2018-11-27T07:58:15.750Z,63.53
2018-11-27T08:00:45.039Z,63.73
2018-11-27T08:03:17.081Z,64.13
2018-11-27T08:05:46.371Z,63.53
2018-11-27T08:08:17.737Z,63.65
2018-11-27T08:10:48.065Z,63.69
2018-11-27T08:13:17.317Z,63.62
2018-11-27T08:15:46.636Z,63.24
2018-11-27T08:18:15.850Z,63.16
2018-11-27T08:20:45.084Z,63.83
2018-11-27T08:23:14.344Z,63.57
2018-11-27T08:25:43.744Z,62.85
2018-11-27T08:28:12.980Z,62.45
2018-11-27T08:30:42.182Z,62.92
2018-11-27T08:33:11.760Z,62.73
2018-11-27T08:35:41.009Z,62.16
2018-11-27T08:38:10.610Z,62.33
2018-11-27T08:40:39.937Z,62.36
2018-11-27T08:43:09.419Z,62.44
2018-11-27T08:45:38.718Z,62.14
2018-11-27T08:48:08.373Z,62.59
2018-11-27T08:50:37.685Z,62.23
2018-11-27T08:53:07.839Z,62.79
2018-11-27T08:55:41.192Z,63.52
2018-11-27T08:58:18.322Z,62.08
2018-11-27T09:00:48.489Z,61.45
2018-11-27T09:03:17.789Z,62.13
2018-11-27T09:05:47.047Z,63.41
2018-11-27T09:08:16.336Z,62.32
2018-11-27T09:10:45.617Z,62.22
2018-11-27T09:13:15.184Z,61.28
2018-11-27T09:15:44.140Z,65.18
2018-11-27T09:18:16.871Z,60.98
2018-11-27T09:20:46.162Z,60.99
2018-11-27T09:23:15.446Z,61.69
2018-11-27T09:25:44.755Z,62.22
2018-11-27T09:28:14.055Z,61.08
2018-11-27T09:30:43.283Z,61.64
2018-11-27T09:33:12.617Z,61.99
2018-11-27T09:35:41.830Z,61.53
2018-11-27T09:38:11.108Z,62.54
2018-11-27T09:40:41.174Z,62.13
2018-11-27T09:43:10.548Z,61.88
2018-11-27T09:45:41.074Z,61.68
2018-11-27T09:48:10.434Z,62.02
2018-11-27T09:50:39.861Z,62.07
2018-11-27T09:53:11.438Z,61.78
2018-11-27T09:55:40.734Z,61.51
2018-11-27T09:58:10.304Z,61.87
2018-11-27T10:00:40.046Z,62.71
2018-11-27T10:03:11.987Z,62.92
2018-11-27T10:05:41.181Z,61.77
2018-11-27T10:08:10.961Z,62.40
2018-11-27T10:10:40.239Z,61.94
2018-11-27T10:13:09.777Z,62.61
2018-11-27T10:15:39.016Z,62.92
2018-11-27T10:18:08.794Z,63.00
2018-11-27T10:20:39.973Z,61.73
2018-11-27T10:23:10.933Z,62.03
2018-11-27T10:25:40.173Z,61.68
2018-11-27T10:28:09.920Z,60.89
2018-11-27T10:30:39.212Z,61.82
2018-11-27T10:33:10.884Z,61.28
2018-11-27T10:35:46.893Z,61.89
2018-11-27T10:38:16.140Z,61.33
2018-11-27T10:40:45.779Z,62.10
2018-11-27T10:43:19.701Z,62.34
2018-11-27T10:45:44.334Z,61.70
2018-11-27T10:48:13.562Z,61.47
2018-11-27T10:50:42.785Z,61.14
2018-11-27T10:53:12.602Z,61.32
2018-11-27T10:55:41.864Z,62.34
2018-11-27T10:58:11.146Z,61.27
2018-11-27T11:00:47.534Z,59.98
2018-11-27T11:06:33.365Z,61.19
2018-11-27T11:09:07.424Z,60.63
2018-11-27T11:11:37.754Z,61.19
2018-11-27T11:14:08.671Z,60.60
2018-11-27T11:16:37.834Z,61.13
2018-11-27T11:19:07.722Z,60.71
2018-11-27T11:21:36.898Z,61.11
2018-11-27T11:24:06.165Z,60.36
2018-11-27T11:26:35.371Z,60.01
2018-11-27T11:29:04.640Z,60.83
2018-11-27T11:31:33.849Z,60.58
2018-11-27T11:34:03.074Z,60.49
2018-11-27T11:36:32.375Z,60.06
2018-11-27T11:39:01.647Z,60.65
2018-11-27T11:41:31.380Z,60.47
2018-11-27T11:44:00.133Z,60.27
2018-11-27T11:46:29.407Z,59.81
2018-11-27T11:49:01.838Z,60.24
2018-11-27T11:51:27.902Z,59.96
2018-11-27T11:53:57.169Z,59.98
2018-11-27T11:56:26.421Z,61.13
2018-11-27T11:58:55.918Z,60.53
2018-11-27T12:01:26.254Z,60.75
2018-11-27T12:03:55.476Z,60.71
2018-11-27T12:06:24.761Z,61.30
2018-11-27T12:08:54.360Z,60.60
2018-11-27T12:11:23.583Z,60.79
2018-11-27T12:13:52.794Z,60.84
2018-11-27T12:16:21.998Z,61.25
2018-11-27T12:18:51.233Z,61.61
2018-11-27T12:21:20.473Z,61.34
2018-11-27T12:23:49.681Z,60.54
2018-11-27T12:26:18.922Z,60.82
2018-11-27T12:28:48.186Z,60.52
2018-11-27T12:31:17.421Z,61.69
2018-11-27T12:33:46.631Z,61.14
2018-11-27T12:36:15.845Z,61.91
2018-11-27T12:38:45.107Z,61.86
2018-11-27T12:41:14.384Z,61.23
2018-11-27T12:43:43.667Z,60.74
2018-11-27T12:46:12.920Z,60.98
2018-11-27T12:48:42.134Z,61.05
2018-11-27T12:51:11.982Z,60.58
2018-11-27T12:53:40.725Z,61.14
2018-11-27T12:56:10.677Z,60.84
2018-11-27T12:58:39.946Z,62.49
2018-11-27T13:01:09.753Z,62.28
2018-11-27T13:03:38.859Z,61.65
2018-11-27T13:06:08.459Z,62.70
2018-11-27T13:08:37.708Z,62.30
2018-11-27T13:11:11.494Z,62.54
2018-11-27T13:13:36.508Z,62.29
2018-11-27T13:16:05.829Z,61.97
2018-11-27T13:18:35.970Z,62.57
2018-11-27T13:21:05.653Z,61.45
2018-11-27T13:23:34.880Z,60.46
2018-11-27T13:26:04.107Z,60.60
2018-11-27T13:28:33.404Z,61.07
2018-11-27T13:31:04.222Z,61.27
2018-11-27T13:34:37.613Z,62.02
2018-11-27T13:37:06.999Z,61.98
2018-11-27T13:39:37.343Z,60.75
2018-11-27T13:42:07.855Z,60.93
2018-11-27T13:44:37.221Z,61.06
2018-11-27T13:47:06.429Z,61.29
2018-11-27T13:49:36.334Z,60.92
2018-11-27T13:52:06.240Z,61.35
2018-11-27T13:54:35.467Z,61.73
2018-11-27T13:57:04.722Z,62.15
2018-11-27T13:59:33.978Z,61.65
2018-11-27T14:02:03.226Z,61.37
2018-11-27T14:04:32.523Z,62.71
2018-11-27T14:07:01.792Z,62.53
2018-11-27T14:09:31.210Z,62.67
2018-11-27T14:12:00.433Z,63.53
2018-11-27T14:14:29.709Z,63.55
2018-11-27T14:16:59.021Z,62.43
2018-11-27T14:19:28.399Z,62.72
2018-11-27T14:21:57.635Z,63.38
2018-11-27T14:24:26.906Z,62.59
2018-11-27T14:26:56.150Z,61.93
2018-11-27T14:29:25.704Z,62.19
2018-11-27T14:31:54.931Z,62.53
2018-11-27T14:34:24.182Z,62.04
2018-11-27T14:36:53.405Z,62.53
2018-11-27T14:39:22.666Z,62.27
2018-11-27T14:41:51.951Z,62.72
2018-11-27T14:44:21.195Z,62.45
2018-11-27T14:46:50.482Z,64.09
2018-11-27T14:49:19.716Z,63.96
2018-11-27T14:51:48.984Z,64.48
2018-11-27T14:54:18.229Z,64.41
2018-11-27T14:56:47.453Z,64.75
2018-11-27T14:59:16.738Z,64.99
2018-11-27T15:01:47.464Z,64.29
2018-11-27T15:04:16.779Z,65.66
2018-11-27T15:06:46.114Z,65.76
2018-11-27T15:09:15.386Z,67.31
2018-11-27T15:11:44.661Z,67.73
2018-11-27T15:14:13.956Z,65.70
2018-11-27T15:16:43.226Z,66.53
2018-11-27T15:19:12.861Z,67.61
2018-11-27T15:21:42.118Z,66.07
2018-11-27T15:24:11.361Z,66.29
2018-11-27T15:26:40.608Z,64.87
2018-11-27T15:29:09.913Z,65.29
2018-11-27T15:31:39.191Z,64.78
2018-11-27T15:34:08.746Z,65.74
2018-11-27T15:36:40.771Z,65.57
2018-11-27T15:39:10.609Z,65.95
2018-11-27T15:41:39.826Z,65.96
2018-11-27T15:44:09.424Z,64.75
2018-11-27T15:46:38.641Z,65.02
2018-11-27T15:49:07.904Z,64.34
2018-11-27T15:51:37.125Z,64.51
2018-11-27T15:54:06.606Z,63.71
2018-11-27T15:56:35.822Z,63.85
2018-11-27T15:59:05.083Z,64.16
2018-11-27T16:01:35.249Z,63.44
2018-11-27T16:04:04.990Z,62.09
2018-11-27T16:06:34.269Z,62.87
2018-11-27T16:09:03.610Z,62.97
2018-11-27T16:11:32.878Z,62.69
2018-11-27T16:14:02.121Z,63.21
2018-11-27T16:16:32.261Z,63.61
2018-11-27T16:19:01.599Z,63.55
2018-11-27T16:21:31.194Z,63.63
2018-11-27T16:24:00.535Z,64.18
2018-11-27T16:26:29.898Z,64.72
2018-11-27T16:28:59.450Z,63.47
2018-11-27T16:31:28.726Z,63.35
2018-11-27T16:33:57.935Z,63.45
2018-11-27T16:36:27.231Z,62.57
2018-11-27T16:38:56.628Z,62.67
2018-11-27T16:41:27.391Z,62.78
2018-11-27T16:43:56.846Z,63.00
2018-11-27T16:46:26.554Z,63.52
2018-11-27T16:48:55.985Z,63.43
2018-11-27T16:51:25.271Z,62.63
2018-11-27T16:53:54.543Z,62.82
2018-11-27T16:56:23.744Z,62.53
2018-11-27T16:58:53.041Z,62.96
2018-11-27T17:01:22.315Z,63.39
2018-11-27T17:03:51.611Z,63.31
2018-11-27T17:06:20.895Z,63.43
2018-11-27T17:08:50.219Z,63.26
2018-11-27T17:11:19.442Z,63.69
2018-11-27T17:13:48.687Z,64.78
2018-11-27T17:16:17.996Z,63.67
2018-11-27T17:18:47.218Z,62.58
2018-11-27T17:21:16.911Z,62.18
2018-11-27T17:23:47.527Z,62.58
2018-11-27T17:26:18.145Z,62.04
2018-11-27T17:28:47.558Z,62.35
2018-11-27T17:31:17.180Z,63.46
2018-11-27T17:33:57.644Z,62.24
2018-11-27T17:36:26.967Z,62.84
2018-11-27T17:38:56.221Z,62.47
2018-11-27T17:41:25.640Z,63.19
2018-11-27T17:43:54.913Z,62.96
2018-11-27T17:46:24.209Z,62.69
2018-11-27T17:48:53.612Z,62.81
2018-11-27T17:51:22.914Z,63.34
2018-11-27T17:53:52.204Z,63.06
2018-11-27T17:56:21.429Z,62.79
2018-11-27T17:58:50.669Z,61.84
2018-11-27T18:01:20.293Z,62.30
2018-11-27T18:03:49.571Z,62.58
2018-11-27T18:06:18.869Z,62.20
2018-11-27T18:08:48.416Z,62.02
2018-11-27T18:11:18.600Z,62.72
2018-11-27T18:13:48.287Z,62.82
2018-11-27T18:16:18.121Z,62.55
2018-11-27T18:18:47.527Z,62.42
2018-11-27T18:21:16.975Z,62.46
2018-11-27T18:23:46.294Z,62.49
2018-11-27T18:26:16.362Z,61.17
2018-11-27T18:28:45.702Z,61.40
2018-11-27T18:31:15.521Z,62.00
2018-11-27T18:33:44.952Z,61.95
2018-11-27T18:36:15.131Z,61.19
2018-11-27T18:38:44.377Z,61.44
2018-11-27T18:41:14.259Z,61.88
2018-11-27T18:43:43.562Z,61.93
2018-11-27T18:46:13.034Z,61.73
2018-11-27T18:48:42.388Z,61.64
2018-11-27T18:51:11.672Z,61.68
2018-11-27T18:53:41.065Z,61.66
2018-11-27T18:56:10.478Z,61.31
2018-11-27T18:58:39.670Z,61.51
2018-11-27T19:01:08.957Z,60.61
2018-11-27T19:03:38.306Z,60.74
2018-11-27T19:06:07.530Z,61.33
2018-11-27T19:08:36.798Z,60.81
2018-11-27T19:11:07.062Z,61.12
2018-11-27T19:13:35.577Z,61.19
2018-11-27T19:16:04.996Z,61.49
2018-11-27T19:18:34.249Z,60.52
2018-11-27T19:21:03.515Z,61.66
2018-11-27T19:38:37.042Z,61.76
2018-11-27T19:41:06.479Z,62.08
2018-11-27T19:43:35.781Z,61.74
2018-11-27T19:46:06.090Z,61.84
2018-11-27T19:48:35.473Z,61.44
2018-11-27T19:51:04.772Z,60.96
2018-11-27T19:53:34.057Z,61.72
2018-11-27T19:56:03.324Z,61.88
2018-11-27T19:58:32.609Z,61.27
2018-11-27T20:01:01.889Z,61.72
2018-11-27T20:03:31.208Z,61.85
2018-11-27T20:06:00.618Z,62.23
2018-11-27T20:08:29.927Z,62.29
2018-11-27T20:10:59.222Z,62.12
2018-11-27T20:13:28.486Z,61.64
2018-11-27T20:15:57.702Z,62.27
2018-11-27T20:18:26.992Z,62.10
2018-11-27T20:20:56.256Z,62.12
2018-11-27T20:23:25.494Z,62.74
2018-11-27T20:25:54.781Z,62.18
2018-11-27T20:28:24.052Z,62.50
2018-11-27T20:30:53.262Z,61.54
2018-11-27T20:33:22.749Z,61.73
2018-11-27T20:35:52.012Z,61.45
2018-11-27T20:38:21.184Z,61.15
2018-11-27T20:40:50.396Z,61.81
2018-11-27T20:43:19.758Z,61.88
2018-11-27T20:45:48.980Z,62.00
2018-11-27T20:48:19.179Z,62.67
2018-11-27T20:50:49.623Z,62.88
2018-11-27T20:53:19.931Z,63.26
2018-11-27T20:55:49.496Z,63.34
2018-11-27T20:58:18.971Z,63.58
2018-11-27T21:00:49.730Z,63.06
2018-11-27T21:08:17.340Z,63.86
2018-11-27T21:10:46.588Z,63.61
2018-11-27T21:13:16.136Z,63.03
2018-11-27T21:15:45.537Z,63.20
2018-11-27T21:18:15.316Z,63.39
2018-11-27T21:20:44.625Z,63.53
2018-11-27T21:23:14.237Z,62.62
2018-11-27T21:25:43.460Z,62.70
2018-11-27T21:28:16.381Z,62.55
2018-11-27T21:30:47.000Z,63.13
2018-11-27T21:33:16.814Z,63.00
2018-11-27T21:35:46.001Z,63.31
2018-11-27T21:38:15.549Z,64.18
2018-11-27T21:40:44.769Z,64.15
2018-11-27T21:43:15.079Z,65.62
2018-11-27T21:45:44.336Z,65.76
2018-11-27T21:48:14.190Z,67.12
2018-11-27T21:50:48.950Z,67.68
2018-11-27T21:53:18.278Z,68.69
2018-11-27T21:55:47.557Z,68.66
2018-11-27T21:58:17.273Z,69.01
2018-11-27T22:00:46.652Z,68.84
2018-11-27T22:03:16.314Z,68.65
2018-11-27T22:05:45.542Z,69.13
2018-11-27T22:08:14.909Z,68.71
2018-11-27T22:10:46.608Z,68.39
2018-11-27T22:13:18.182Z,68.59
2018-11-27T22:15:48.754Z,68.84
2018-11-27T22:18:20.686Z,68.47
2018-11-27T22:20:49.905Z,68.97
2018-11-27T22:23:22.381Z,68.94
2018-11-27T22:25:53.042Z,69.29
2018-11-27T22:28:22.275Z,68.25
2018-11-27T22:30:51.531Z,69.60
2018-11-27T22:33:20.959Z,78.18
2018-11-27T22:35:50.226Z,72.38
2018-11-27T22:38:20.010Z,70.27
2018-11-27T22:40:49.271Z,68.88
2018-11-27T22:43:18.538Z,67.39
2018-11-27T22:45:47.813Z,62.36
2018-11-27T22:48:17.417Z,62.62
2018-11-27T22:50:46.666Z,63.40
2018-11-27T22:53:16.326Z,65.46
2018-11-27T22:55:45.517Z,65.03
2018-11-27T22:58:15.208Z,68.93
2018-11-27T23:00:50.876Z,70.61
2018-11-27T23:03:20.389Z,71.25
2018-11-27T23:05:49.678Z,71.51
2018-11-27T23:08:19.109Z,71.04
2018-11-27T23:10:48.930Z,70.37
2018-11-27T23:13:19.154Z,71.27
2018-11-27T23:15:48.432Z,70.76
2018-11-27T23:18:18.027Z,70.87
2018-11-27T23:20:47.339Z,69.96
2018-11-27T23:23:16.949Z,70.49
2018-11-27T23:25:46.175Z,70.28
2018-11-27T23:28:15.963Z,70.74
2018-11-27T23:30:45.189Z,69.91
2018-11-27T23:33:15.366Z,68.98
2018-11-27T23:35:44.636Z,69.28
2018-11-27T23:38:14.579Z,69.54
2018-11-27T23:40:45.127Z,69.38
2018-11-27T23:43:15.057Z,70.33
2018-11-27T23:45:44.278Z,69.86
2018-11-27T23:48:14.127Z,69.92
2018-11-27T23:50:43.442Z,69.72
2018-11-27T23:53:12.716Z,70.05
2018-11-27T23:55:42.238Z,69.43
2018-11-27T23:58:11.475Z,70.08
